sensor_id;sensor_type;location;lat;lon;timestamp;P1;durP1;ratioP1;P2;durP2;ratioP2
59828;SDS011;45708;51.848;107.620;2023-05-06T00:00:45;10.35;;;6.40;;
59828;SDS011;45708;51.848;107.620;2023-05-06T00:05:46;12.00;;;6.63;;
59828;SDS011;45708;51.848;107.620;2023-05-06T00:10:46;8.00;;;5.53;;
59828;SDS011;45708;51.848;107.620;2023-05-06T00:15:47;7.00;;;6.13;;
59828;SDS011;45708;51.848;107.620;2023-05-06T00:20:48;10.32;;;5.93;;
59828;SDS011;45708;51.848;107.620;2023-05-06T00:25:49;10.52;;;6.30;;
59828;SDS011;45708;51.848;107.620;2023-05-06T00:30:52;8.48;;;5.10;;
59828;SDS011;45708;51.848;107.620;2023-05-06T00:35:53;7.60;;;5.53;;
59828;SDS011;45708;51.848;107.620;2023-05-06T00:40:53;6.93;;;5.47;;
59828;SDS011;45708;51.848;107.620;2023-05-06T00:45:54;5.43;;;4.20;;
59828;SDS011;45708;51.848;107.620;2023-05-06T00:50:55;9.90;;;5.82;;
59828;SDS011;45708;51.848;107.620;2023-05-06T00:55:56;6.65;;;5.45;;
59828;SDS011;45708;51.848;107.620;2023-05-06T01:00:58;6.97;;;5.10;;
59828;SDS011;45708;51.848;107.620;2023-05-06T01:16:44;13.50;;;5.82;;
59828;SDS011;45708;51.848;107.620;2023-05-06T01:21:51;5.85;;;5.28;;
59828;SDS011;45708;51.848;107.620;2023-05-06T01:26:54;8.45;;;4.45;;
59828;SDS011;45708;51.848;107.620;2023-05-06T01:31:56;10.18;;;5.20;;
59828;SDS011;45708;51.848;107.620;2023-05-06T01:42:11;18.63;;;16.10;;
59828;SDS011;45708;51.848;107.620;2023-05-06T01:47:14;4.43;;;3.92;;
59828;SDS011;45708;51.848;107.620;2023-05-06T01:52:16;4.30;;;3.78;;
59828;SDS011;45708;51.848;107.620;2023-05-06T01:57:17;3.53;;;2.92;;
59828;SDS011;45708;51.848;107.620;2023-05-06T02:02:18;10.15;;;4.93;;
59828;SDS011;45708;51.848;107.620;2023-05-06T02:07:19;3.10;;;2.75;;
59828;SDS011;45708;51.848;107.620;2023-05-06T02:12:19;2.47;;;2.20;;
59828;SDS011;45708;51.848;107.620;2023-05-06T02:17:20;7.22;;;2.90;;
59828;SDS011;45708;51.848;107.620;2023-05-06T02:22:21;8.35;;;4.38;;
59828;SDS011;45708;51.848;107.620;2023-05-06T02:27:22;6.82;;;2.58;;
59828;SDS011;45708;51.848;107.620;2023-05-06T02:32:23;4.93;;;2.30;;
59828;SDS011;45708;51.848;107.620;2023-05-06T02:37:23;14.35;;;12.98;;
59828;SDS011;45708;51.848;107.620;2023-05-06T02:42:24;3.03;;;2.30;;
59828;SDS011;45708;51.848;107.620;2023-05-06T02:47:25;3.53;;;2.80;;
59828;SDS011;45708;51.848;107.620;2023-05-06T02:52:26;3.88;;;2.45;;
59828;SDS011;45708;51.848;107.620;2023-05-06T02:57:27;3.33;;;2.35;;
59828;SDS011;45708;51.848;107.620;2023-05-06T03:02:27;4.32;;;2.85;;
59828;SDS011;45708;51.848;107.620;2023-05-06T03:07:28;3.25;;;2.70;;
59828;SDS011;45708;51.848;107.620;2023-05-06T03:12:30;4.30;;;3.08;;
59828;SDS011;45708;51.848;107.620;2023-05-06T03:17:31;3.40;;;2.35;;
59828;SDS011;45708;51.848;107.620;2023-05-06T03:22:31;4.65;;;3.47;;
59828;SDS011;45708;51.848;107.620;2023-05-06T03:27:32;3.03;;;2.72;;
59828;SDS011;45708;51.848;107.620;2023-05-06T03:32:33;6.82;;;3.00;;
59828;SDS011;45708;51.848;107.620;2023-05-06T03:37:34;5.15;;;2.90;;
59828;SDS011;45708;51.848;107.620;2023-05-06T03:42:35;3.63;;;2.70;;
59828;SDS011;45708;51.848;107.620;2023-05-06T03:47:35;5.35;;;2.17;;
59828;SDS011;45708;51.848;107.620;2023-05-06T03:52:36;3.80;;;2.63;;
59828;SDS011;45708;51.848;107.620;2023-05-06T03:57:37;4.72;;;2.78;;
59828;SDS011;45708;51.848;107.620;2023-05-06T04:02:38;4.65;;;3.45;;
59828;SDS011;45708;51.848;107.620;2023-05-06T04:07:39;4.18;;;3.15;;
59828;SDS011;45708;51.848;107.620;2023-05-06T04:12:40;11.60;;;3.50;;
59828;SDS011;45708;51.848;107.620;2023-05-06T04:17:41;6.43;;;3.70;;
59828;SDS011;45708;51.848;107.620;2023-05-06T04:22:41;4.15;;;3.20;;
59828;SDS011;45708;51.848;107.620;2023-05-06T04:27:42;11.23;;;5.15;;
59828;SDS011;45708;51.848;107.620;2023-05-06T04:32:43;12.63;;;9.75;;
59828;SDS011;45708;51.848;107.620;2023-05-06T04:37:44;7.80;;;5.10;;
59828;SDS011;45708;51.848;107.620;2023-05-06T04:42:45;8.13;;;3.47;;
59828;SDS011;45708;51.848;107.620;2023-05-06T04:47:45;5.05;;;2.75;;
59828;SDS011;45708;51.848;107.620;2023-05-06T04:52:46;3.90;;;2.20;;
59828;SDS011;45708;51.848;107.620;2023-05-06T04:57:47;3.15;;;2.08;;
59828;SDS011;45708;51.848;107.620;2023-05-06T05:02:48;6.78;;;5.20;;
59828;SDS011;45708;51.848;107.620;2023-05-06T05:07:48;6.15;;;3.10;;
59828;SDS011;45708;51.848;107.620;2023-05-06T05:12:49;2.22;;;1.98;;
59828;SDS011;45708;51.848;107.620;2023-05-06T05:17:50;7.93;;;4.03;;
59828;SDS011;45708;51.848;107.620;2023-05-06T05:22:51;4.30;;;2.78;;
59828;SDS011;45708;51.848;107.620;2023-05-06T05:27:52;3.50;;;2.45;;
59828;SDS011;45708;51.848;107.620;2023-05-06T05:32:53;2.67;;;2.33;;
59828;SDS011;45708;51.848;107.620;2023-05-06T05:37:53;4.57;;;2.88;;
59828;SDS011;45708;51.848;107.620;2023-05-06T05:42:54;3.00;;;2.60;;
59828;SDS011;45708;51.848;107.620;2023-05-06T05:47:55;4.60;;;3.10;;
59828;SDS011;45708;51.848;107.620;2023-05-06T05:52:56;3.13;;;2.35;;
59828;SDS011;45708;51.848;107.620;2023-05-06T05:57:57;5.63;;;2.60;;
59828;SDS011;45708;51.848;107.620;2023-05-06T06:02:57;4.07;;;2.22;;
59828;SDS011;45708;51.848;107.620;2023-05-06T06:07:58;5.65;;;2.97;;
59828;SDS011;45708;51.848;107.620;2023-05-06T06:12:59;4.60;;;3.30;;
59828;SDS011;45708;51.848;107.620;2023-05-06T06:18:00;5.68;;;3.08;;
59828;SDS011;45708;51.848;107.620;2023-05-06T06:23:01;5.28;;;3.25;;
59828;SDS011;45708;51.848;107.620;2023-05-06T06:28:02;6.70;;;4.22;;
59828;SDS011;45708;51.848;107.620;2023-05-06T06:33:02;6.20;;;3.63;;
59828;SDS011;45708;51.848;107.620;2023-05-06T06:38:03;9.15;;;3.75;;
59828;SDS011;45708;51.848;107.620;2023-05-06T06:43:04;6.57;;;4.13;;
59828;SDS011;45708;51.848;107.620;2023-05-06T06:48:05;8.40;;;5.20;;
59828;SDS011;45708;51.848;107.620;2023-05-06T06:53:06;8.98;;;5.60;;
59828;SDS011;45708;51.848;107.620;2023-05-06T06:58:07;5.72;;;4.30;;
59828;SDS011;45708;51.848;107.620;2023-05-06T07:03:08;7.30;;;4.38;;
59828;SDS011;45708;51.848;107.620;2023-05-06T07:08:09;5.55;;;4.03;;
59828;SDS011;45708;51.848;107.620;2023-05-06T07:13:10;8.68;;;4.22;;
59828;SDS011;45708;51.848;107.620;2023-05-06T07:18:11;7.35;;;4.38;;
59828;SDS011;45708;51.848;107.620;2023-05-06T07:23:11;4.68;;;3.75;;
59828;SDS011;45708;51.848;107.620;2023-05-06T07:28:12;8.65;;;4.40;;
59828;SDS011;45708;51.848;107.620;2023-05-06T07:33:13;4.13;;;2.90;;
59828;SDS011;45708;51.848;107.620;2023-05-06T07:38:14;5.95;;;2.50;;
59828;SDS011;45708;51.848;107.620;2023-05-06T07:43:15;5.28;;;2.47;;
59828;SDS011;45708;51.848;107.620;2023-05-06T07:48:16;7.57;;;3.72;;
59828;SDS011;45708;51.848;107.620;2023-05-06T07:53:16;2.53;;;2.00;;
59828;SDS011;45708;51.848;107.620;2023-05-06T07:58:17;14.38;;;3.88;;
59828;SDS011;45708;51.848;107.620;2023-05-06T08:03:18;3.13;;;2.13;;
59828;SDS011;45708;51.848;107.620;2023-05-06T08:08:19;5.63;;;3.03;;
59828;SDS011;45708;51.848;107.620;2023-05-06T08:13:22;2.85;;;2.00;;
59828;SDS011;45708;51.848;107.620;2023-05-06T08:18:23;9.15;;;3.13;;
59828;SDS011;45708;51.848;107.620;2023-05-06T08:23:23;3.60;;;2.33;;
59828;SDS011;45708;51.848;107.620;2023-05-06T08:28:24;2.55;;;2.15;;
59828;SDS011;45708;51.848;107.620;2023-05-06T08:33:25;5.75;;;3.00;;
59828;SDS011;45708;51.848;107.620;2023-05-06T08:38:26;6.75;;;2.85;;
59828;SDS011;45708;51.848;107.620;2023-05-06T08:43:27;3.97;;;2.40;;
59828;SDS011;45708;51.848;107.620;2023-05-06T08:48:30;5.03;;;2.72;;
59828;SDS011;45708;51.848;107.620;2023-05-06T08:53:32;4.78;;;3.30;;
59828;SDS011;45708;51.848;107.620;2023-05-06T08:58:33;5.60;;;2.67;;
59828;SDS011;45708;51.848;107.620;2023-05-06T09:03:35;5.63;;;2.70;;
59828;SDS011;45708;51.848;107.620;2023-05-06T09:08:36;21.05;;;4.18;;
59828;SDS011;45708;51.848;107.620;2023-05-06T09:13:37;4.18;;;2.80;;
59828;SDS011;45708;51.848;107.620;2023-05-06T09:18:38;6.47;;;3.40;;
59828;SDS011;45708;51.848;107.620;2023-05-06T09:23:38;8.82;;;3.55;;
59828;SDS011;45708;51.848;107.620;2023-05-06T09:28:40;5.40;;;2.88;;
59828;SDS011;45708;51.848;107.620;2023-05-06T09:33:45;4.50;;;2.70;;
59828;SDS011;45708;51.848;107.620;2023-05-06T09:38:46;5.80;;;2.20;;
59828;SDS011;45708;51.848;107.620;2023-05-06T09:43:47;7.18;;;3.13;;
59828;SDS011;45708;51.848;107.620;2023-05-06T09:48:51;10.25;;;3.78;;
59828;SDS011;45708;51.848;107.620;2023-05-06T09:53:54;6.80;;;3.53;;
59828;SDS011;45708;51.848;107.620;2023-05-06T09:58:55;8.70;;;3.50;;
59828;SDS011;45708;51.848;107.620;2023-05-06T10:03:59;3.75;;;2.72;;
59828;SDS011;45708;51.848;107.620;2023-05-06T10:09:02;6.30;;;2.83;;
59828;SDS011;45708;51.848;107.620;2023-05-06T10:14:04;9.40;;;6.57;;
59828;SDS011;45708;51.848;107.620;2023-05-06T10:19:07;9.23;;;5.38;;
59828;SDS011;45708;51.848;107.620;2023-05-06T10:24:09;3.70;;;2.67;;
59828;SDS011;45708;51.848;107.620;2023-05-06T10:29:12;8.82;;;4.57;;
59828;SDS011;45708;51.848;107.620;2023-05-06T10:34:13;9.35;;;5.32;;
59828;SDS011;45708;51.848;107.620;2023-05-06T10:39:17;4.35;;;2.70;;
59828;SDS011;45708;51.848;107.620;2023-05-06T10:44:45;12.95;;;8.32;;
59828;SDS011;45708;51.848;107.620;2023-05-06T10:55:24;8.85;;;5.15;;
59828;SDS011;45708;51.848;107.620;2023-05-06T11:00:29;7.57;;;4.30;;
59828;SDS011;45708;51.848;107.620;2023-05-06T11:05:46;5.40;;;2.90;;
59828;SDS011;45708;51.848;107.620;2023-05-06T11:10:48;6.47;;;2.90;;
59828;SDS011;45708;51.848;107.620;2023-05-06T11:15:49;3.45;;;2.30;;
59828;SDS011;45708;51.848;107.620;2023-05-06T11:20:50;7.70;;;2.42;;
59828;SDS011;45708;51.848;107.620;2023-05-06T11:26:11;5.35;;;3.40;;
59828;SDS011;45708;51.848;107.620;2023-05-06T11:31:13;7.78;;;4.80;;
59828;SDS011;45708;51.848;107.620;2023-05-06T11:36:15;13.25;;;5.20;;
59828;SDS011;45708;51.848;107.620;2023-05-06T11:41:17;7.22;;;4.60;;
59828;SDS011;45708;51.848;107.620;2023-05-06T11:46:19;9.50;;;5.15;;
59828;SDS011;45708;51.848;107.620;2023-05-06T11:51:21;7.53;;;3.90;;
59828;SDS011;45708;51.848;107.620;2023-05-06T11:56:22;8.93;;;5.63;;
59828;SDS011;45708;51.848;107.620;2023-05-06T12:01:25;11.80;;;6.93;;
59828;SDS011;45708;51.848;107.620;2023-05-06T12:06:35;15.55;;;8.30;;
59828;SDS011;45708;51.848;107.620;2023-05-06T12:11:38;23.67;;;11.30;;
59828;SDS011;45708;51.848;107.620;2023-05-06T12:16:39;23.42;;;11.32;;
59828;SDS011;45708;51.848;107.620;2023-05-06T12:21:41;18.02;;;10.95;;
59828;SDS011;45708;51.848;107.620;2023-05-06T12:26:42;20.90;;;10.82;;
59828;SDS011;45708;51.848;107.620;2023-05-06T12:31:47;26.23;;;13.07;;
59828;SDS011;45708;51.848;107.620;2023-05-06T12:36:48;31.90;;;15.95;;
59828;SDS011;45708;51.848;107.620;2023-05-06T12:41:51;43.38;;;22.83;;
59828;SDS011;45708;51.848;107.620;2023-05-06T12:46:52;52.15;;;23.88;;
59828;SDS011;45708;51.848;107.620;2023-05-06T12:52:05;61.75;;;27.17;;
59828;SDS011;45708;51.848;107.620;2023-05-06T12:57:09;63.78;;;25.67;;
59828;SDS011;45708;51.848;107.620;2023-05-06T13:02:10;52.97;;;26.67;;
59828;SDS011;45708;51.848;107.620;2023-05-06T13:07:12;49.25;;;24.10;;
59828;SDS011;45708;51.848;107.620;2023-05-06T13:12:13;57.78;;;25.63;;
59828;SDS011;45708;51.848;107.620;2023-05-06T13:17:14;52.17;;;24.85;;
59828;SDS011;45708;51.848;107.620;2023-05-06T13:22:14;54.88;;;25.83;;
59828;SDS011;45708;51.848;107.620;2023-05-06T13:27:16;43.83;;;22.80;;
59828;SDS011;45708;51.848;107.620;2023-05-06T13:32:16;32.00;;;16.08;;
59828;SDS011;45708;51.848;107.620;2023-05-06T13:37:17;26.05;;;13.82;;
59828;SDS011;45708;51.848;107.620;2023-05-06T13:42:18;37.80;;;16.15;;
59828;SDS011;45708;51.848;107.620;2023-05-06T13:47:19;12.18;;;6.88;;
59828;SDS011;45708;51.848;107.620;2023-05-06T13:52:20;22.27;;;11.90;;
59828;SDS011;45708;51.848;107.620;2023-05-06T13:57:20;24.75;;;12.15;;
59828;SDS011;45708;51.848;107.620;2023-05-06T14:02:21;22.83;;;11.93;;
59828;SDS011;45708;51.848;107.620;2023-05-06T14:07:22;39.03;;;17.92;;
59828;SDS011;45708;51.848;107.620;2023-05-06T14:12:23;32.72;;;14.68;;
59828;SDS011;45708;51.848;107.620;2023-05-06T14:17:24;40.35;;;17.23;;
59828;SDS011;45708;51.848;107.620;2023-05-06T14:22:26;32.05;;;14.68;;
59828;SDS011;45708;51.848;107.620;2023-05-06T14:27:27;37.55;;;15.35;;
59828;SDS011;45708;51.848;107.620;2023-05-06T14:32:27;31.77;;;17.45;;
59828;SDS011;45708;51.848;107.620;2023-05-06T14:37:28;45.80;;;21.10;;
59828;SDS011;45708;51.848;107.620;2023-05-06T14:42:29;44.00;;;18.42;;
59828;SDS011;45708;51.848;107.620;2023-05-06T14:47:30;41.28;;;15.65;;
59828;SDS011;45708;51.848;107.620;2023-05-06T14:52:30;25.13;;;12.95;;
59828;SDS011;45708;51.848;107.620;2023-05-06T14:57:32;20.50;;;9.18;;
59828;SDS011;45708;51.848;107.620;2023-05-06T15:02:33;28.20;;;10.32;;
59828;SDS011;45708;51.848;107.620;2023-05-06T15:07:34;29.27;;;9.85;;
59828;SDS011;45708;51.848;107.620;2023-05-06T15:12:38;18.15;;;8.60;;
59828;SDS011;45708;51.848;107.620;2023-05-06T15:17:39;32.50;;;13.68;;
59828;SDS011;45708;51.848;107.620;2023-05-06T15:22:39;32.60;;;13.02;;
59828;SDS011;45708;51.848;107.620;2023-05-06T15:27:40;23.55;;;9.90;;
59828;SDS011;45708;51.848;107.620;2023-05-06T15:32:41;21.85;;;10.68;;
59828;SDS011;45708;51.848;107.620;2023-05-06T15:37:42;25.10;;;10.30;;
59828;SDS011;45708;51.848;107.620;2023-05-06T15:42:42;33.10;;;13.00;;
59828;SDS011;45708;51.848;107.620;2023-05-06T15:47:43;34.00;;;15.85;;
59828;SDS011;45708;51.848;107.620;2023-05-06T15:52:44;64.57;;;25.17;;
59828;SDS011;45708;51.848;107.620;2023-05-06T15:57:45;54.30;;;21.88;;
59828;SDS011;45708;51.848;107.620;2023-05-06T16:02:46;41.63;;;19.05;;
59828;SDS011;45708;51.848;107.620;2023-05-06T16:07:47;33.85;;;14.75;;
59828;SDS011;45708;51.848;107.620;2023-05-06T16:12:48;29.40;;;14.65;;
59828;SDS011;45708;51.848;107.620;2023-05-06T16:17:48;43.15;;;17.77;;
59828;SDS011;45708;51.848;107.620;2023-05-06T16:22:49;45.90;;;18.00;;
59828;SDS011;45708;51.848;107.620;2023-05-06T16:27:50;38.65;;;16.00;;
59828;SDS011;45708;51.848;107.620;2023-05-06T16:32:51;39.13;;;17.30;;
59828;SDS011;45708;51.848;107.620;2023-05-06T16:37:52;29.58;;;13.57;;
59828;SDS011;45708;51.848;107.620;2023-05-06T16:42:52;15.73;;;8.90;;
59828;SDS011;45708;51.848;107.620;2023-05-06T16:47:53;17.60;;;8.75;;
59828;SDS011;45708;51.848;107.620;2023-05-06T16:52:54;16.25;;;8.07;;
59828;SDS011;45708;51.848;107.620;2023-05-06T16:57:55;19.15;;;9.02;;
59828;SDS011;45708;51.848;107.620;2023-05-06T17:02:56;19.10;;;8.30;;
59828;SDS011;45708;51.848;107.620;2023-05-06T17:07:56;18.60;;;8.82;;
59828;SDS011;45708;51.848;107.620;2023-05-06T17:12:57;19.73;;;9.40;;
59828;SDS011;45708;51.848;107.620;2023-05-06T17:17:58;17.67;;;8.20;;
59828;SDS011;45708;51.848;107.620;2023-05-06T17:22:59;11.68;;;7.00;;
59828;SDS011;45708;51.848;107.620;2023-05-06T17:28:00;10.35;;;6.30;;
59828;SDS011;45708;51.848;107.620;2023-05-06T17:33:00;15.02;;;6.53;;
59828;SDS011;45708;51.848;107.620;2023-05-06T17:38:01;16.13;;;7.20;;
59828;SDS011;45708;51.848;107.620;2023-05-06T17:43:02;18.55;;;8.10;;
59828;SDS011;45708;51.848;107.620;2023-05-06T17:48:03;17.77;;;6.97;;
59828;SDS011;45708;51.848;107.620;2023-05-06T17:53:04;15.32;;;7.32;;
59828;SDS011;45708;51.848;107.620;2023-05-06T17:58:05;18.52;;;9.10;;
59828;SDS011;45708;51.848;107.620;2023-05-06T18:03:06;19.25;;;8.88;;
59828;SDS011;45708;51.848;107.620;2023-05-06T18:08:07;16.75;;;9.38;;
59828;SDS011;45708;51.848;107.620;2023-05-06T18:13:07;28.13;;;11.85;;
59828;SDS011;45708;51.848;107.620;2023-05-06T18:18:08;24.98;;;9.75;;
59828;SDS011;45708;51.848;107.620;2023-05-06T18:23:09;16.17;;;8.00;;
59828;SDS011;45708;51.848;107.620;2023-05-06T18:28:10;13.63;;;6.97;;
59828;SDS011;45708;51.848;107.620;2023-05-06T18:33:11;19.95;;;7.03;;
59828;SDS011;45708;51.848;107.620;2023-05-06T18:38:13;10.68;;;4.72;;
59828;SDS011;45708;51.848;107.620;2023-05-06T18:43:14;5.15;;;3.53;;
59828;SDS011;45708;51.848;107.620;2023-05-06T18:48:15;10.32;;;4.53;;
59828;SDS011;45708;51.848;107.620;2023-05-06T18:53:17;8.68;;;4.32;;
59828;SDS011;45708;51.848;107.620;2023-05-06T18:58:18;7.63;;;4.57;;
59828;SDS011;45708;51.848;107.620;2023-05-06T19:03:19;10.60;;;4.75;;
59828;SDS011;45708;51.848;107.620;2023-05-06T19:08:20;8.25;;;4.68;;
59828;SDS011;45708;51.848;107.620;2023-05-06T19:13:20;10.52;;;5.38;;
59828;SDS011;45708;51.848;107.620;2023-05-06T19:18:22;8.13;;;5.00;;
59828;SDS011;45708;51.848;107.620;2023-05-06T19:23:22;10.43;;;4.75;;
59828;SDS011;45708;51.848;107.620;2023-05-06T19:28:23;9.73;;;5.18;;
59828;SDS011;45708;51.848;107.620;2023-05-06T19:33:24;11.88;;;4.95;;
59828;SDS011;45708;51.848;107.620;2023-05-06T19:38:25;9.20;;;4.68;;
59828;SDS011;45708;51.848;107.620;2023-05-06T19:43:26;8.75;;;4.65;;
59828;SDS011;45708;51.848;107.620;2023-05-06T19:48:27;10.30;;;4.65;;
59828;SDS011;45708;51.848;107.620;2023-05-06T19:53:27;12.10;;;5.18;;
59828;SDS011;45708;51.848;107.620;2023-05-06T19:58:28;15.57;;;5.53;;
59828;SDS011;45708;51.848;107.620;2023-05-06T20:03:29;11.30;;;5.78;;
59828;SDS011;45708;51.848;107.620;2023-05-06T20:08:31;14.73;;;5.78;;
59828;SDS011;45708;51.848;107.620;2023-05-06T20:13:32;14.93;;;5.70;;
59828;SDS011;45708;51.848;107.620;2023-05-06T20:18:32;10.13;;;4.78;;
59828;SDS011;45708;51.848;107.620;2023-05-06T20:23:33;11.40;;;5.50;;
59828;SDS011;45708;51.848;107.620;2023-05-06T20:28:34;10.30;;;5.53;;
59828;SDS011;45708;51.848;107.620;2023-05-06T20:33:35;11.65;;;5.82;;
59828;SDS011;45708;51.848;107.620;2023-05-06T20:38:36;14.57;;;6.72;;
59828;SDS011;45708;51.848;107.620;2023-05-06T20:43:37;10.98;;;5.53;;
59828;SDS011;45708;51.848;107.620;2023-05-06T20:48:37;10.80;;;6.00;;
59828;SDS011;45708;51.848;107.620;2023-05-06T20:53:38;12.88;;;6.25;;
59828;SDS011;45708;51.848;107.620;2023-05-06T20:58:39;8.07;;;4.93;;
59828;SDS011;45708;51.848;107.620;2023-05-06T21:03:40;7.35;;;4.88;;
59828;SDS011;45708;51.848;107.620;2023-05-06T21:08:42;10.27;;;5.05;;
59828;SDS011;45708;51.848;107.620;2023-05-06T21:13:43;9.50;;;5.35;;
59828;SDS011;45708;51.848;107.620;2023-05-06T21:18:44;13.23;;;6.25;;
59828;SDS011;45708;51.848;107.620;2023-05-06T21:23:44;16.80;;;7.00;;
59828;SDS011;45708;51.848;107.620;2023-05-06T21:28:45;16.90;;;7.18;;
59828;SDS011;45708;51.848;107.620;2023-05-06T21:33:46;12.63;;;6.25;;
59828;SDS011;45708;51.848;107.620;2023-05-06T21:39:06;9.88;;;6.28;;
59828;SDS011;45708;51.848;107.620;2023-05-06T21:44:08;14.55;;;7.13;;
59828;SDS011;45708;51.848;107.620;2023-05-06T21:49:09;19.45;;;8.05;;
59828;SDS011;45708;51.848;107.620;2023-05-06T21:54:10;17.73;;;7.05;;
59828;SDS011;45708;51.848;107.620;2023-05-06T21:59:11;13.18;;;6.55;;
59828;SDS011;45708;51.848;107.620;2023-05-06T22:04:12;13.23;;;6.32;;
59828;SDS011;45708;51.848;107.620;2023-05-06T22:09:13;9.90;;;5.38;;
59828;SDS011;45708;51.848;107.620;2023-05-06T22:14:14;11.35;;;6.00;;
59828;SDS011;45708;51.848;107.620;2023-05-06T22:19:15;14.93;;;7.25;;
59828;SDS011;45708;51.848;107.620;2023-05-06T22:24:16;12.25;;;7.47;;
59828;SDS011;45708;51.848;107.620;2023-05-06T22:29:17;18.67;;;8.25;;
59828;SDS011;45708;51.848;107.620;2023-05-06T22:34:17;17.13;;;8.85;;
59828;SDS011;45708;51.848;107.620;2023-05-06T22:39:18;14.43;;;7.45;;
59828;SDS011;45708;51.848;107.620;2023-05-06T22:44:19;8.30;;;4.97;;
59828;SDS011;45708;51.848;107.620;2023-05-06T22:49:20;7.82;;;5.43;;
59828;SDS011;45708;51.848;107.620;2023-05-06T22:54:21;11.65;;;6.78;;
59828;SDS011;45708;51.848;107.620;2023-05-06T22:59:22;10.73;;;5.95;;
59828;SDS011;45708;51.848;107.620;2023-05-06T23:04:23;8.75;;;6.32;;
59828;SDS011;45708;51.848;107.620;2023-05-06T23:09:24;11.02;;;6.05;;
59828;SDS011;45708;51.848;107.620;2023-05-06T23:14:25;9.13;;;4.78;;
59828;SDS011;45708;51.848;107.620;2023-05-06T23:19:26;10.27;;;6.35;;
59828;SDS011;45708;51.848;107.620;2023-05-06T23:24:26;12.45;;;6.75;;
59828;SDS011;45708;51.848;107.620;2023-05-06T23:29:27;10.63;;;5.60;;
59828;SDS011;45708;51.848;107.620;2023-05-06T23:34:28;14.57;;;6.53;;
59828;SDS011;45708;51.848;107.620;2023-05-06T23:39:29;8.15;;;5.55;;
59828;SDS011;45708;51.848;107.620;2023-05-06T23:44:29;5.80;;;4.13;;
59828;SDS011;45708;51.848;107.620;2023-05-06T23:49:30;7.93;;;5.32;;
59828;SDS011;45708;51.848;107.620;2023-05-06T23:54:31;9.80;;;5.28;;
59828;SDS011;45708;51.848;107.620;2023-05-06T23:59:32;7.90;;;4.50;;
